Marche, Arkansas
Current Conditions -  °F | °C
As of 5:53 PM on Wednesday 26 Nov 2014 (Local Time) from KLIT Reporting Station
Broken Clouds Broken Clouds  
Wind Chill: 52°   Ceiling: 20000
Heat Index: 52°   Visibility: 10mi
Dew Point: 27°   Wind: 7mph
Humidity: 38%   Direction: 280°W
Pressure: 30.14"   Gusts: NA
Location:  34.757°N, 92.1411°W
Report Text: KLIT 262353Z 28006KT 10SM BKN200 11/M03 A3014 RMK AO2 SLP209 T01111028 10144 20100 53027
Loading
Personal Weather Stations






























Interactive Weather Map New forecast layout! Learn more

10-Day Weather Forecast

Advertisements
Track Severe Weather on mobile